Time;durP1;ratioP1;P1;durP2;ratioP2;P2;SDS_P1;SDS_P2;PMS_P1;PMS_P2;Temp;Humidity;BMP_temperature;BMP_pressure;BME280_temperature;BME280_humidity;BME280_pressure;Samples;Min_cycle;Max_cycle;Signal;HPM_P1;HPM_P2
2023/12/31 00:01:02;;;;;;;1999.90;999.90;;;11.50;99.90;;;;;;5037071;28;20488;-70
2023/12/31 00:03:28;;;;;;;1999.90;999.90;;;11.60;99.90;;;;;;5036940;28;20033;-70
2023/12/31 00:05:54;;;;;;;1999.90;999.90;;;11.60;99.90;;;;;;5049120;28;20026;-70
2023/12/31 00:08:20;;;;;;;1999.90;999.90;;;11.60;99.90;;;;;;5038047;28;20049;-70
2023/12/31 00:10:46;;;;;;;1999.90;999.90;;;11.60;99.90;;;;;;5037448;28;20040;-69
2023/12/31 00:13:12;;;;;;;1999.90;999.90;;;11.70;99.90;;;;;;5038182;28;20052;-70
2023/12/31 00:15:38;;;;;;;1999.90;999.90;;;11.70;99.90;;;;;;5036469;28;20714;-70
2023/12/31 00:18:04;;;;;;;1999.90;999.90;;;11.70;99.90;;;;;;5049512;28;20036;-71
2023/12/31 00:20:30;;;;;;;1999.90;999.90;;;11.70;99.90;;;;;;5055106;28;20041;-71
2023/12/31 00:22:56;;;;;;;1999.90;999.90;;;11.70;99.90;;;;;;5038031;28;20379;-70
2023/12/31 00:25:22;;;;;;;1999.90;999.90;;;11.70;99.90;;;;;;5044995;28;20037;-70
2023/12/31 00:27:48;;;;;;;1999.90;999.90;;;11.70;99.90;;;;;;5042174;28;20059;-70
2023/12/31 00:30:15;;;;;;;1999.90;999.90;;;11.70;99.90;;;;;;5056437;28;20514;-70
2023/12/31 00:32:41;;;;;;;1999.90;999.90;;;11.80;99.90;;;;;;5037964;28;20037;-70
2023/12/31 00:35:07;;;;;;;1999.90;999.90;;;11.80;99.90;;;;;;5037860;28;20029;-70
2023/12/31 00:37:33;;;;;;;1999.90;999.90;;;11.80;99.90;;;;;;5037420;28;20049;-70
2023/12/31 00:39:59;;;;;;;1999.90;999.90;;;11.80;99.90;;;;;;5037464;28;20391;-70
2023/12/31 00:42:25;;;;;;;1999.90;999.90;;;11.80;99.90;;;;;;5037342;28;20029;-70
2023/12/31 00:44:51;;;;;;;1999.90;999.90;;;11.80;99.90;;;;;;5037453;28;20061;-70
2023/12/31 00:47:18;;;;;;;1999.90;999.90;;;11.90;99.90;;;;;;5037099;28;20053;-70
2023/12/31 00:49:44;;;;;;;1999.90;999.90;;;11.90;99.90;;;;;;5037804;28;20040;-70
2023/12/31 00:52:10;;;;;;;1999.90;999.90;;;11.90;99.90;;;;;;5036138;28;20491;-71
2023/12/31 00:54:37;;;;;;;1999.90;999.90;;;12.00;99.90;;;;;;5033662;28;20025;-71
2023/12/31 00:57:03;;;;;;;1999.90;999.90;;;11.90;99.90;;;;;;5034239;28;20026;-71
2023/12/31 00:59:30;;;;;;;1999.90;999.90;;;12.00;99.90;;;;;;5034834;28;20365;-70
2023/12/31 01:01:56;;;;;;;1999.90;999.90;;;12.00;99.90;;;;;;5035945;28;20033;-71
2023/12/31 01:04:22;;;;;;;1999.90;999.90;;;12.00;99.90;;;;;;5044198;28;20056;-71
2023/12/31 01:06:48;;;;;;;1999.90;999.90;;;12.00;99.90;;;;;;5041283;28;20037;-71
2023/12/31 01:09:14;;;;;;;1999.90;999.90;;;11.70;99.90;;;;;;5034555;28;20029;-71
2023/12/31 01:11:40;;;;;;;85.88;81.53;;;11.50;99.90;;;;;;5034424;28;20037;-71
2023/12/31 01:14:06;;;;;;;187.63;178.02;;;11.30;99.90;;;;;;5035020;28;20030;-71
2023/12/31 01:16:32;;;;;;;215.18;203.90;;;11.20;99.90;;;;;;5033933;28;20034;-71
2023/12/31 01:18:58;;;;;;;170.35;161.57;;;11.10;99.90;;;;;;5034592;28;20139;-71
2023/12/31 01:21:24;;;;;;;204.40;193.18;;;11.00;99.90;;;;;;5033162;28;20040;-71
2023/12/31 01:23:50;;;;;;;249.10;234.95;;;11.00;99.90;;;;;;5034145;28;20029;-71
2023/12/31 01:26:17;;;;;;;250.10;235.52;;;10.90;99.90;;;;;;5042446;28;20033;-71
2023/12/31 01:28:43;;;;;;;211.85;200.13;;;10.90;99.90;;;;;;5032829;28;20550;-71
2023/12/31 01:31:20;;;;;;;198.10;187.38;;;10.80;99.90;;;;;;5033573;28;20042;-71
2023/12/31 01:33:46;;;;;;;180.60;170.88;;;10.80;99.90;;;;;;5032757;28;20415;-71
2023/12/31 01:36:14;;;;;;;227.38;214.90;;;10.70;99.90;;;;;;5033891;28;20033;-71
2023/12/31 01:38:40;;;;;;;212.55;200.32;;;10.60;99.90;;;;;;5034077;28;20029;-71
2023/12/31 01:41:08;;;;;;;200.98;189.82;;;10.70;99.90;;;;;;5033897;28;20036;-71
2023/12/31 01:43:35;;;;;;;176.63;166.82;;;10.70;99.90;;;;;;5033859;28;20049;-71
2023/12/31 01:46:03;;;;;;;207.32;195.40;;;10.60;99.90;;;;;;5044195;28;20057;-71
2023/12/31 01:48:29;;;;;;;190.13;179.20;;;10.70;99.90;;;;;;5032883;28;20056;-71
2023/12/31 01:50:56;;;;;;;206.75;195.32;;;10.70;99.90;;;;;;5032274;28;20040;-70
2023/12/31 01:53:22;;;;;;;217.77;205.57;;;10.70;99.90;;;;;;5032553;28;20026;-71
2023/12/31 01:55:48;;;;;;;214.80;202.43;;;10.70;99.90;;;;;;5032484;28;20032;-71
2023/12/31 01:58:14;;;;;;;195.23;184.18;;;10.60;99.90;;;;;;5032830;28;20375;-71
2023/12/31 02:00:40;;;;;;;216.02;204.10;;;10.60;99.90;;;;;;5031764;28;20025;-71
2023/12/31 02:03:06;;;;;;;197.10;186.15;;;10.60;99.90;;;;;;5033004;28;20392;-71
2023/12/31 02:05:32;;;;;;;144.23;135.90;;;10.60;99.90;;;;;;5030965;28;20048;-71
2023/12/31 02:07:58;;;;;;;201.70;190.32;;;10.60;99.90;;;;;;5033163;28;20055;-71
2023/12/31 02:10:24;;;;;;;240.63;226.60;;;10.50;99.90;;;;;;5033209;28;20034;-71
2023/12/31 02:12:51;;;;;;;274.98;257.95;;;10.50;99.90;;;;;;5033907;28;20139;-70
2023/12/31 02:15:31;;;;;;;250.80;236.60;;;10.40;99.90;;;;;;5032480;28;20040;-70
2023/12/31 02:17:58;;;;;;;240.32;227.32;;;10.50;99.90;;;;;;5033635;28;20499;-70
2023/12/31 02:20:24;;;;;;;275.23;260.20;;;10.50;99.90;;;;;;5040708;28;20018;-71
2023/12/31 02:22:50;;;;;;;326.52;307.73;;;10.50;99.90;;;;;;5033055;28;20040;-70
2023/12/31 02:25:18;;;;;;;238.02;224.43;;;10.40;99.90;;;;;;5039701;28;20029;-70
2023/12/31 02:27:44;;;;;;;241.82;228.18;;;10.40;99.90;;;;;;5033213;28;20038;-70
2023/12/31 02:30:11;;;;;;;227.00;213.27;;;10.40;99.90;;;;;;5032774;28;20025;-70
2023/12/31 02:32:37;;;;;;;188.75;177.85;;;10.40;99.90;;;;;;5040432;28;20057;-70
2023/12/31 02:35:04;;;;;;;132.60;125.53;;;10.40;99.90;;;;;;5033163;28;20032;-70
2023/12/31 02:37:30;;;;;;;130.18;122.68;;;10.40;99.90;;;;;;5031398;28;20034;-70
2023/12/31 02:39:56;;;;;;;207.70;196.65;;;10.40;99.90;;;;;;5033161;28;20116;-70
2023/12/31 02:42:22;;;;;;;152.25;144.30;;;10.30;99.90;;;;;;5032957;28;20430;-70
2023/12/31 02:44:48;;;;;;;220.10;208.23;;;10.40;99.90;;;;;;5034321;28;20049;-70
2023/12/31 02:47:14;;;;;;;219.95;207.82;;;10.30;99.90;;;;;;5047586;28;20045;-70
2023/12/31 02:49:40;;;;;;;241.27;227.63;;;10.30;99.90;;;;;;5052904;28;20040;-70
2023/12/31 02:52:06;;;;;;;228.77;215.77;;;10.40;99.90;;;;;;5036210;28;20029;-70
2023/12/31 02:54:32;;;;;;;185.80;176.02;;;10.40;99.90;;;;;;5031412;28;20068;-71
2023/12/31 02:56:59;;;;;;;157.40;149.00;;;10.40;99.90;;;;;;5032578;28;20025;-70
2023/12/31 02:59:25;;;;;;;108.88;103.20;;;10.40;99.90;;;;;;5032756;28;20400;-70
2023/12/31 03:01:52;;;;;;;130.63;124.03;;;10.40;99.90;;;;;;5039373;28;20033;-71
2023/12/31 03:04:18;;;;;;;163.00;154.10;;;10.40;99.90;;;;;;5052553;28;20028;-71
2023/12/31 03:06:47;;;;;;;166.07;157.18;;;10.40;99.90;;;;;;5048509;28;20475;-70
2023/12/31 03:09:14;;;;;;;122.85;116.40;;;10.40;99.90;;;;;;5032482;28;20037;-71
2023/12/31 03:11:40;;;;;;;1999.90;999.90;;;10.40;99.90;;;;;;5031833;28;20045;-70
2023/12/31 03:14:06;;;;;;;1541.93;789.25;;;10.40;99.90;;;;;;5032658;28;20044;-70
2023/12/31 03:16:32;;;;;;;1999.90;999.90;;;10.50;99.90;;;;;;5031212;28;20037;-70
2023/12/31 03:18:58;;;;;;;1999.90;999.90;;;10.50;99.90;;;;;;5032561;28;20048;-70
2023/12/31 03:21:25;;;;;;;199.23;188.85;;;10.50;99.90;;;;;;5031702;28;20049;-70
2023/12/31 03:23:51;;;;;;;158.88;150.48;;;10.50;99.90;;;;;;5050510;28;20045;-70
2023/12/31 03:26:17;;;;;;;222.98;211.45;;;10.50;99.90;;;;;;5033631;28;20037;-70
2023/12/31 03:28:43;;;;;;;1108.57;602.70;;;10.60;99.90;;;;;;5032269;28;20056;-70
2023/12/31 03:31:09;;;;;;;177.80;168.35;;;10.60;99.90;;;;;;5031498;28;20514;-70
2023/12/31 03:33:36;;;;;;;1999.90;999.90;;;10.50;99.90;;;;;;5032131;28;20518;-70
2023/12/31 03:36:02;;;;;;;1999.90;999.90;;;10.40;99.90;;;;;;5031771;28;20029;-70
2023/12/31 03:38:28;;;;;;;192.57;181.30;;;10.20;99.90;;;;;;5032310;28;20821;-71
2023/12/31 03:40:54;;;;;;;126.07;119.68;;;9.90;99.90;;;;;;5030883;28;20033;-70
2023/12/31 03:43:20;;;;;;;182.13;172.35;;;9.70;99.90;;;;;;5032184;28;20492;-71
2023/12/31 03:45:47;;;;;;;254.98;240.57;;;9.70;99.90;;;;;;5031199;28;20052;-71
2023/12/31 03:48:13;;;;;;;408.48;383.02;;;9.70;99.90;;;;;;5031424;28;20058;-69
2023/12/31 03:50:39;;;;;;;428.45;401.45;;;9.60;99.90;;;;;;5031937;28;20491;-71
2023/12/31 03:53:05;;;;;;;356.73;335.23;;;9.70;99.90;;;;;;5036079;28;20040;-71
2023/12/31 03:55:31;;;;;;;296.65;279.50;;;9.70;99.90;;;;;;5048481;28;20044;-71
2023/12/31 03:57:57;;;;;;;200.43;189.50;;;9.70;99.90;;;;;;5032501;28;20419;-70
2023/12/31 04:00:23;;;;;;;224.10;211.85;;;9.60;99.90;;;;;;5049187;28;20029;-70
2023/12/31 04:02:49;;;;;;;266.20;251.32;;;9.60;99.90;;;;;;5031812;28;20048;-70
2023/12/31 04:05:15;;;;;;;174.85;165.27;;;9.60;99.90;;;;;;5031769;28;20036;-71
2023/12/31 04:07:41;;;;;;;181.05;171.02;;;9.60;99.90;;;;;;5031981;28;20064;-71
2023/12/31 04:10:08;;;;;;;207.80;196.57;;;9.60;99.90;;;;;;5030408;28;20021;-71
2023/12/31 04:12:34;;;;;;;245.45;231.75;;;9.60;99.90;;;;;;5031820;28;20043;-70
2023/12/31 04:15:00;;;;;;;252.68;238.48;;;9.60;99.90;;;;;;5030305;28;20396;-70
2023/12/31 04:17:26;;;;;;;236.98;223.63;;;9.60;99.90;;;;;;5030942;28;20038;-70
2023/12/31 04:19:52;;;;;;;230.80;217.98;;;9.60;99.90;;;;;;5031763;28;20033;-70
2023/12/31 04:22:18;;;;;;;252.05;237.57;;;9.60;99.90;;;;;;5031879;28;20038;-70
2023/12/31 04:24:44;;;;;;;221.02;208.65;;;9.60;99.90;;;;;;5036318;28;20037;-70
2023/12/31 04:27:10;;;;;;;191.55;180.27;;;9.60;99.90;;;;;;5033464;28;20049;-70
2023/12/31 04:29:36;;;;;;;279.02;262.02;;;9.70;99.90;;;;;;5034952;28;20037;-70
2023/12/31 04:32:03;;;;;;;260.35;245.40;;;9.60;99.90;;;;;;5032944;28;20041;-70
2023/12/31 04:34:29;;;;;;;218.23;205.27;;;9.60;99.90;;;;;;5035196;28;20053;-70
2023/12/31 04:36:55;;;;;;;241.55;227.32;;;9.70;99.90;;;;;;5035129;28;20472;-71
2023/12/31 04:39:21;;;;;;;296.45;279.67;;;9.60;99.90;;;;;;5035501;28;20029;-70
2023/12/31 04:41:47;;;;;;;261.15;246.05;;;9.60;99.90;;;;;;5035040;28;20048;-70
2023/12/31 04:44:13;;;;;;;250.05;235.60;;;9.60;99.90;;;;;;5035137;28;20045;-70
2023/12/31 04:46:40;;;;;;;267.17;251.30;;;9.60;99.90;;;;;;5033816;28;20048;-70
2023/12/31 04:49:06;;;;;;;223.35;210.00;;;9.60;99.90;;;;;;5035045;28;20049;-70
2023/12/31 04:51:32;;;;;;;267.30;251.10;;;9.60;99.90;;;;;;5034791;28;20040;-70
2023/12/31 04:53:58;;;;;;;289.08;272.00;;;9.60;99.90;;;;;;5035089;28;20037;-70
2023/12/31 04:56:25;;;;;;;296.45;279.00;;;9.60;99.90;;;;;;5034697;28;20037;-70
2023/12/31 04:58:56;;;;;;;277.45;260.90;;;9.60;99.90;;;;;;5035022;28;20490;-70
2023/12/31 05:01:22;;;;;;;153.10;143.85;;;9.60;99.90;;;;;;5033367;28;20065;-70
2023/12/31 05:03:49;;;;;;;214.38;201.35;;;9.60;99.90;;;;;;5033729;28;20052;-70
2023/12/31 05:06:15;;;;;;;171.38;161.15;;;9.60;99.90;;;;;;5034643;28;20025;-70
2023/12/31 05:08:43;;;;;;;239.05;225.13;;;9.60;99.90;;;;;;5046356;28;20045;-70
2023/12/31 05:11:12;;;;;;;224.40;210.35;;;9.70;99.90;;;;;;5045613;28;20049;-70
2023/12/31 05:13:38;;;;;;;196.32;184.35;;;9.70;99.90;;;;;;5034772;28;20033;-70
2023/12/31 05:16:10;;;;;;;231.45;217.82;;;9.70;99.90;;;;;;5033598;28;20037;-70
2023/12/31 05:18:36;;;;;;;;;;;9.70;99.90;;;;;;5047946;28;20060;-70
2023/12/31 05:21:02;;;;;;;162.82;153.18;;;9.70;99.90;;;;;;5041308;28;19913;-70
2023/12/31 05:23:30;;;;;;;214.50;202.20;;;9.70;99.90;;;;;;5046817;28;20021;-70
2023/12/31 05:25:56;;;;;;;247.32;232.80;;;9.70;99.90;;;;;;5039078;28;20049;-70
2023/12/31 05:28:22;;;;;;;252.43;237.48;;;9.70;99.90;;;;;;5034217;28;20037;-70
2023/12/31 05:30:48;;;;;;;248.30;233.88;;;9.60;99.90;;;;;;5033264;28;20033;-70
2023/12/31 05:33:14;;;;;;;164.98;155.35;;;9.60;99.90;;;;;;5044152;28;20033;-70
2023/12/31 05:35:40;;;;;;;190.88;179.48;;;9.70;99.90;;;;;;5048151;28;20033;-70
2023/12/31 05:38:06;;;;;;;183.23;172.35;;;9.70;99.90;;;;;;5033242;28;20026;-70
2023/12/31 05:40:32;;;;;;;180.98;170.65;;;9.60;99.90;;;;;;5033687;28;20036;-70
2023/12/31 05:42:58;;;;;;;232.02;219.18;;;9.70;99.90;;;;;;5032489;28;20044;-70
2023/12/31 05:45:24;;;;;;;225.25;212.65;;;9.60;99.90;;;;;;5032803;28;20041;-70
2023/12/31 05:47:51;;;;;;;195.52;184.65;;;9.70;99.90;;;;;;5033916;28;20355;-70
2023/12/31 05:50:17;;;;;;;215.25;203.07;;;9.70;99.90;;;;;;5032580;28;20045;-70
2023/12/31 05:52:44;;;;;;;223.50;210.75;;;9.70;99.90;;;;;;5039556;28;20025;-70
2023/12/31 05:55:10;;;;;;;199.13;188.25;;;9.70;99.90;;;;;;5051149;28;20412;-70
2023/12/31 05:57:36;;;;;;;185.38;174.60;;;9.80;99.90;;;;;;5033846;28;20033;-70
2023/12/31 06:00:06;;;;;;;237.82;223.70;;;9.80;99.90;;;;;;5032963;28;20468;-68
2023/12/31 06:02:32;;;;;;;239.95;226.70;;;9.90;99.90;;;;;;5037437;28;20399;-70
2023/12/31 06:04:58;;;;;;;249.52;234.88;;;9.90;99.90;;;;;;5049839;28;20395;-70
2023/12/31 06:07:24;;;;;;;186.77;175.90;;;9.90;99.90;;;;;;5040690;28;20029;-70
2023/12/31 06:09:50;;;;;;;204.95;192.75;;;9.90;99.90;;;;;;5053371;28;20052;-70
2023/12/31 06:12:17;;;;;;;245.40;231.35;;;9.90;99.90;;;;;;5035773;28;20388;-70
2023/12/31 06:14:43;;;;;;;295.65;277.90;;;9.80;99.90;;;;;;5033356;28;20038;-70
2023/12/31 06:17:09;;;;;;;308.95;290.52;;;9.80;99.90;;;;;;5031579;28;20060;-70
2023/12/31 06:19:35;;;;;;;292.42;274.77;;;9.80;99.90;;;;;;5033451;28;20033;-70
2023/12/31 06:22:02;;;;;;;257.90;241.93;;;9.70;99.90;;;;;;5033295;28;20037;-70
2023/12/31 06:24:28;;;;;;;372.58;349.17;;;9.70;99.90;;;;;;5049218;28;20020;-70
2023/12/31 06:26:54;;;;;;;204.80;192.68;;;9.70;99.90;;;;;;5041878;28;20028;-70
2023/12/31 06:29:20;;;;;;;216.40;204.15;;;9.60;99.90;;;;;;5052506;28;20071;-70
2023/12/31 06:31:47;;;;;;;380.25;355.90;;;9.60;99.90;;;;;;5034223;28;20044;-70
2023/12/31 06:34:13;;;;;;;306.60;287.38;;;9.60;99.90;;;;;;5049004;28;20025;-70
2023/12/31 06:36:39;;;;;;;299.00;280.70;;;9.70;99.90;;;;;;5033028;28;20032;-70
2023/12/31 06:39:07;;;;;;;320.02;299.27;;;9.70;99.90;;;;;;5049007;28;20025;-70
2023/12/31 06:41:33;;;;;;;313.95;294.05;;;9.70;99.90;;;;;;5037129;28;20511;-70
2023/12/31 06:44:00;;;;;;;226.02;212.00;;;9.70;99.90;;;;;;5032470;28;20068;-70
2023/12/31 06:46:26;;;;;;;243.07;228.23;;;9.70;99.90;;;;;;5041191;28;20048;-70
2023/12/31 06:48:53;;;;;;;268.52;252.07;;;9.70;99.90;;;;;;5052873;28;20506;-70
2023/12/31 06:51:19;;;;;;;289.92;271.85;;;9.70;99.90;;;;;;5040692;28;20045;-70
2023/12/31 06:53:45;;;;;;;223.45;210.45;;;9.70;99.90;;;;;;5047070;28;20033;-70
2023/12/31 06:56:12;;;;;;;246.63;231.55;;;9.70;99.90;;;;;;5041419;28;20060;-70
2023/12/31 06:58:38;;;;;;;275.30;257.77;;;9.70;99.90;;;;;;5032413;28;20097;-70
2023/12/31 07:01:04;;;;;;;256.00;240.13;;;9.60;99.90;;;;;;5030579;28;20037;-71
2023/12/31 07:03:31;;;;;;;309.67;290.25;;;9.60;99.90;;;;;;5038715;28;20044;-71
2023/12/31 07:05:57;;;;;;;284.05;266.33;;;9.60;99.90;;;;;;5034154;28;20052;-71
2023/12/31 07:08:23;;;;;;;292.58;273.67;;;9.60;99.90;;;;;;5031194;28;20413;-70
2023/12/31 07:10:52;;;;;;;365.27;341.80;;;9.60;99.90;;;;;;5032451;28;20052;-70
2023/12/31 07:13:19;;;;;;;333.33;311.73;;;9.60;99.90;;;;;;5032620;28;20038;-71
2023/12/31 07:15:45;;;;;;;308.70;289.13;;;9.60;99.90;;;;;;5031558;28;20037;-70
2023/12/31 07:18:11;;;;;;;310.17;290.38;;;9.60;99.90;;;;;;5036704;28;20043;-70
2023/12/31 07:20:37;;;;;;;329.58;308.20;;;9.60;99.90;;;;;;5048476;28;20056;-71
2023/12/31 07:23:04;;;;;;;281.60;263.20;;;9.60;99.90;;;;;;5044534;28;20037;-71
2023/12/31 07:25:31;;;;;;;287.90;269.88;;;9.60;99.90;;;;;;5048819;28;20050;-70
2023/12/31 07:27:58;;;;;;;274.10;256.48;;;9.50;99.90;;;;;;5031802;28;20361;-71
2023/12/31 07:30:25;;;;;;;332.88;310.58;;;9.60;99.90;;;;;;5031848;28;20041;-70
2023/12/31 07:32:51;;;;;;;397.52;371.63;;;9.60;99.90;;;;;;5049657;28;20032;-71
2023/12/31 07:35:17;;;;;;;363.83;339.88;;;9.60;99.90;;;;;;5032010;28;20041;-71
2023/12/31 07:37:43;;;;;;;374.75;350.40;;;9.60;99.90;;;;;;5052123;28;20025;-70
2023/12/31 07:40:10;;;;;;;412.73;385.52;;;9.60;99.90;;;;;;5051927;28;20372;-70
2023/12/31 07:42:39;;;;;;;292.35;273.02;;;9.70;99.90;;;;;;5051409;28;20420;-70
2023/12/31 07:45:06;;;;;;;318.65;296.15;;;9.70;99.90;;;;;;5036655;28;20044;-70
2023/12/31 07:47:35;;;;;;;412.48;379.38;;;9.70;99.90;;;;;;5031861;28;20029;-70
2023/12/31 07:50:05;;;;;;;230.73;215.13;;;9.70;99.90;;;;;;5031944;28;20061;-71
2023/12/31 07:52:31;;;;;;;234.27;218.45;;;9.70;99.90;;;;;;5033152;28;20048;-70
2023/12/31 07:54:57;;;;;;;236.70;221.00;;;9.80;99.90;;;;;;5039305;28;20034;-71
2023/12/31 07:57:23;;;;;;;286.13;267.88;;;9.80;99.90;;;;;;5031803;28;20029;-71
2023/12/31 07:59:49;;;;;;;267.42;251.00;;;9.90;99.90;;;;;;5031995;28;20066;-70
2023/12/31 08:02:15;;;;;;;323.88;303.00;;;9.90;99.90;;;;;;5031752;28;20036;-70
2023/12/31 08:04:42;;;;;;;298.65;280.05;;;10.00;99.90;;;;;;5035928;28;20468;-71
2023/12/31 08:07:08;;;;;;;123.05;113.88;;;10.00;99.90;;;;;;5045842;28;20037;-70
2023/12/31 08:09:34;;;;;;;198.25;186.27;;;10.00;99.90;;;;;;5040301;28;20045;-72
2023/12/31 08:12:00;;;;;;;226.82;213.65;;;10.10;99.90;;;;;;5036761;28;20027;-70
2023/12/31 08:14:27;;;;;;;1999.90;999.90;;;10.10;99.90;;;;;;5036866;28;20088;-70
2023/12/31 08:16:53;;;;;;;1999.90;999.90;;;10.10;99.90;;;;;;5034689;28;20034;-72
2023/12/31 08:19:19;;;;;;;1999.90;999.90;;;10.00;99.90;;;;;;5035778;28;20052;-72
2023/12/31 08:21:45;;;;;;;1999.90;999.90;;;10.10;99.90;;;;;;5035471;28;20026;-70
2023/12/31 08:24:18;;;;;;;1999.90;999.90;;;10.00;99.90;;;;;;5034957;28;20042;-70
2023/12/31 08:26:44;;;;;;;1999.90;999.90;;;10.00;99.90;;;;;;5035541;28;20050;-72
2023/12/31 08:29:10;;;;;;;1999.90;999.90;;;10.00;99.90;;;;;;5035457;28;20034;-71
2023/12/31 08:31:36;;;;;;;1999.90;999.90;;;10.00;99.90;;;;;;5034966;28;20033;-72
2023/12/31 08:34:02;;;;;;;1999.90;999.90;;;10.00;99.90;;;;;;5035400;28;20030;-72
2023/12/31 08:36:29;;;;;;;1999.90;999.90;;;9.90;99.90;;;;;;5034639;28;20483;-72
2023/12/31 08:38:55;;;;;;;1999.90;999.90;;;9.90;99.90;;;;;;5035021;28;20029;-72
2023/12/31 08:41:21;;;;;;;1999.90;999.90;;;9.90;99.90;;;;;;5033865;28;20383;-73
2023/12/31 08:43:48;;;;;;;1999.90;999.90;;;9.90;99.90;;;;;;5035151;28;20025;-72
2023/12/31 08:46:14;;;;;;;1999.90;999.90;;;9.90;99.90;;;;;;5042546;28;20037;-72
2023/12/31 08:48:41;;;;;;;1999.90;999.90;;;9.90;99.90;;;;;;5055130;28;20048;-72
2023/12/31 08:51:07;;;;;;;1999.90;999.90;;;9.90;99.90;;;;;;5046644;28;20053;-72
2023/12/31 08:53:33;;;;;;;1999.90;999.90;;;9.90;99.90;;;;;;5040314;28;20036;-72
2023/12/31 08:55:59;;;;;;;1999.90;999.90;;;9.90;99.90;;;;;;5047961;28;20025;-72
2023/12/31 08:58:26;;;;;;;1999.90;999.90;;;9.90;99.90;;;;;;5035069;28;20034;-72
2023/12/31 09:00:53;;;;;;;1999.90;999.90;;;9.90;99.90;;;;;;5034011;28;20025;-72
2023/12/31 09:03:19;;;;;;;1999.90;999.90;;;9.90;99.90;;;;;;5034219;28;20045;-72
2023/12/31 09:05:45;;;;;;;1999.90;999.90;;;9.90;99.90;;;;;;5032698;28;20033;-73
2023/12/31 09:08:11;;;;;;;1999.90;999.90;;;9.80;99.90;;;;;;5044953;28;20033;-72
2023/12/31 09:10:38;;;;;;;1999.90;999.90;;;9.80;99.90;;;;;;5049709;28;20094;-72
2023/12/31 09:13:04;;;;;;;1999.90;999.90;;;9.70;99.90;;;;;;5042286;28;20495;-72
2023/12/31 09:15:30;;;;;;;1999.90;999.90;;;9.70;99.90;;;;;;5049788;28;20037;-72
2023/12/31 09:17:56;;;;;;;1999.90;999.90;;;9.70;99.90;;;;;;5034166;28;20029;-72
2023/12/31 09:20:22;;;;;;;1999.90;999.90;;;9.60;99.90;;;;;;5033877;28;20025;-72
2023/12/31 09:22:52;;;;;;;1999.90;999.90;;;9.50;99.90;;;;;;5035147;28;20037;-72
2023/12/31 09:25:21;;;;;;;89.20;83.82;;;9.50;99.90;;;;;;5037643;28;20492;-72
2023/12/31 09:27:48;;;;;;;158.07;148.82;;;9.40;99.90;;;;;;5034590;28;20048;-72
2023/12/31 09:30:14;;;;;;;157.85;148.55;;;9.30;99.90;;;;;;5036508;28;20038;-72
2023/12/31 09:32:41;;;;;;;89.88;84.68;;;9.30;99.90;;;;;;5033899;28;20049;-72
2023/12/31 09:35:07;;;;;;;108.82;102.30;;;9.20;99.90;;;;;;5033943;28;20089;-72
2023/12/31 09:37:34;;;;;;;156.45;147.45;;;9.20;99.90;;;;;;5039659;28;20029;-72
2023/12/31 09:40:00;;;;;;;184.18;173.50;;;9.20;99.90;;;;;;5039215;28;20140;-72
2023/12/31 09:42:49;;;;;;;154.77;144.80;;;9.20;99.90;;;;;;5033748;28;20084;-72
2023/12/31 09:45:20;;;;;;;474.80;436.52;;;9.20;99.90;;;;;;5036514;28;20049;-72
2023/12/31 09:47:47;;;;;;;332.38;313.00;;;9.20;99.90;;;;;;5049846;28;20028;-72
2023/12/31 09:50:13;;;;;;;208.45;196.00;;;9.20;99.90;;;;;;5015147;28;20056;-72
2023/12/31 09:52:39;;;;;;;257.33;241.75;;;9.20;99.90;;;;;;5032015;28;20029;-72
2023/12/31 09:55:06;;;;;;;291.45;273.42;;;9.20;99.90;;;;;;5043174;28;20518;-72
2023/12/31 09:57:35;;;;;;;254.75;238.68;;;9.20;99.90;;;;;;5032046;28;20037;-72
2023/12/31 10:00:04;;;;;;;227.68;214.05;;;9.20;99.90;;;;;;5032145;28;20029;-72
2023/12/31 10:02:30;;;;;;;197.27;184.43;;;9.30;99.90;;;;;;5032129;28;20049;-72
2023/12/31 10:04:56;;;;;;;169.15;156.95;;;9.30;99.90;;;;;;5015383;28;20219;-72
2023/12/31 10:07:22;;;;;;;132.55;124.38;;;9.30;99.90;;;;;;5031362;28;20048;-73
2023/12/31 10:09:52;;;;;;;268.65;253.57;;;9.30;99.90;;;;;;5026366;28;20411;-72
2023/12/31 10:12:18;;;;;;;143.98;135.68;;;9.30;99.90;;;;;;5034368;28;20029;-72
2023/12/31 10:14:45;;;;;;;1082.18;577.58;;;9.40;99.90;;;;;;5032063;28;20045;-72
2023/12/31 10:17:11;;;;;;;170.55;161.20;;;9.50;99.90;;;;;;5030909;28;20037;-72
2023/12/31 10:19:39;;;;;;;1999.90;999.90;;;9.60;99.90;;;;;;5031660;28;20049;-73
2023/12/31 10:22:05;;;;;;;1999.90;999.90;;;9.80;99.90;;;;;;5032196;28;20044;-72
2023/12/31 10:24:31;;;;;;;1999.90;999.90;;;9.90;99.90;;;;;;5033353;28;20464;-72
2023/12/31 10:27:03;;;;;;;1999.90;999.90;;;10.10;99.90;;;;;;5031808;28;20037;-73
2023/12/31 10:29:29;;;;;;;1999.90;999.90;;;10.20;99.90;;;;;;5030720;28;20037;-73
2023/12/31 10:31:55;;;;;;;1999.90;999.90;;;10.30;99.90;;;;;;5031179;28;20404;-73
2023/12/31 10:34:21;;;;;;;1999.90;999.90;;;10.40;99.90;;;;;;5031037;28;20025;-71
2023/12/31 10:36:48;;;;;;;1999.90;999.90;;;10.40;99.90;;;;;;5035109;28;20026;-72
2023/12/31 10:39:31;;;;;;;1999.90;999.90;;;10.50;99.90;;;;;;5042693;28;20040;-72
2023/12/31 10:41:58;;;;;;;1999.90;999.90;;;10.50;99.90;;;;;;5033414;28;20356;-72
2023/12/31 10:44:27;;;;;;;1999.90;999.90;;;10.50;99.90;;;;;;5038042;28;20637;-72
2023/12/31 10:46:57;;;;;;;1999.90;999.90;;;10.60;99.90;;;;;;5037388;28;20042;-71
2023/12/31 10:49:23;;;;;;;1999.90;999.90;;;10.60;99.90;;;;;;5039682;28;20040;-71
2023/12/31 10:51:52;;;;;;;1999.90;999.90;;;10.50;99.90;;;;;;5036470;28;20056;-72
2023/12/31 10:54:41;;;;;;;1999.90;999.90;;;10.40;99.90;;;;;;5032198;28;20033;-71
2023/12/31 10:57:07;;;;;;;1999.90;999.90;;;10.40;99.90;;;;;;5032380;28;20410;-72
2023/12/31 10:59:34;;;;;;;1999.90;999.90;;;10.60;99.90;;;;;;5031015;28;20036;-71
2023/12/31 11:02:00;;;;;;;1999.90;999.90;;;10.60;99.90;;;;;;5029856;28;20033;-72
2023/12/31 11:04:27;;;;;;;1999.90;999.90;;;10.60;99.90;;;;;;5030582;28;20101;-72
2023/12/31 11:06:54;;;;;;;1999.90;999.90;;;10.70;99.90;;;;;;5035867;28;20033;-71
2023/12/31 11:09:20;;;;;;;1999.90;999.90;;;10.80;99.90;;;;;;5048716;28;20049;-71
2023/12/31 11:11:47;;;;;;;1999.90;999.90;;;10.80;99.90;;;;;;5036005;28;20029;-72
2023/12/31 11:14:14;;;;;;;1999.90;999.90;;;10.80;99.90;;;;;;5036193;28;20032;-72
2023/12/31 11:16:44;;;;;;;1999.90;999.90;;;10.90;99.90;;;;;;5027662;28;20037;-72
2023/12/31 11:19:13;;;;;;;1999.90;999.90;;;11.00;99.90;;;;;;5050216;28;20455;-72
2023/12/31 11:22:08;;;;;;;1999.90;999.90;;;11.10;99.90;;;;;;5039304;28;20049;-71
2023/12/31 11:24:34;;;;;;;1999.90;999.90;;;11.20;99.90;;;;;;5032083;28;20036;-72
2023/12/31 11:27:15;;;;;;;1999.90;999.90;;;11.20;99.90;;;;;;5030408;28;20033;-72
2023/12/31 11:29:46;;;;;;;1999.90;999.90;;;11.20;99.90;;;;;;5030264;28;20049;-71
2023/12/31 11:32:13;;;;;;;1999.90;999.90;;;11.10;99.90;;;;;;5030087;28;20631;-71
2023/12/31 11:34:40;;;;;;;1999.90;999.90;;;11.10;99.90;;;;;;5030681;28;20040;-71
2023/12/31 11:37:07;;;;;;;1999.90;999.90;;;11.00;99.90;;;;;;5029851;28;20117;-71
2023/12/31 11:39:33;;;;;;;1999.90;999.90;;;11.10;99.90;;;;;;5035511;28;20041;-71
2023/12/31 11:42:12;;;;;;;1999.90;999.90;;;11.10;99.90;;;;;;5036537;28;20041;-71
2023/12/31 11:44:43;;;;;;;1999.90;999.90;;;11.20;99.90;;;;;;5031647;28;20404;-71
2023/12/31 11:47:15;;;;;;;1999.90;999.90;;;11.40;99.90;;;;;;5030627;28;20030;-73
2023/12/31 11:49:46;;;;;;;1999.90;999.90;;;11.60;99.90;;;;;;5031711;28;20042;-71
2023/12/31 11:52:12;;;;;;;1999.90;999.90;;;11.60;99.90;;;;;;5031698;28;20045;-71
2023/12/31 11:54:39;;;;;;;1999.90;999.90;;;11.70;99.90;;;;;;5031809;28;20077;-72
2023/12/31 11:57:13;;;;;;;1999.90;999.90;;;11.90;99.90;;;;;;5031434;28;20041;-71
2023/12/31 11:59:42;;;;;;;1999.90;999.90;;;11.90;99.90;;;;;;5031581;28;20046;-72
2023/12/31 12:02:08;;;;;;;1999.90;999.90;;;11.90;99.90;;;;;;5028708;28;20029;-72
2023/12/31 12:04:35;;;;;;;1999.90;999.90;;;11.80;99.90;;;;;;5031401;28;20671;-72
2023/12/31 12:07:02;;;;;;;1999.90;999.90;;;11.70;99.90;;;;;;5031289;28;20049;-72
2023/12/31 12:09:31;;;;;;;1999.90;999.90;;;11.70;99.90;;;;;;5030727;28;20587;-71